Terminal Aerodrome Forecast
Issued by NWS

Home | Current Version | Previous Version | Text Only | Print | Product List | Glossary On
Versions: 1 2 3 4 5 6 7 8 9 10 11 12 13
000
FTUS42 KTBW 201100
TAFPGD
TAF
KPGD 201128Z 2012/2112 09005KT 6SM HZ FEW250
      TEMPO 2012/2013 5SM BR
     FM201400 12007KT P6SM FEW025 FEW250
     FM201900 21007KT P6SM SCT040 SCT250
     FM210000 VRB03KT P6SM SCT250=

USA.gov is the U.S. government's official web portal to all federal, state and local government web resources and services.